Time,TemperatureF,DewpointF,PressureIn,WindDirection,WindDirectionDegrees,WindSpeedMPH,WindSpeedGustMPH,Humidity,HourlyPrecipIn,Conditions,Clouds,dailyrainin,SoftwareType,DateUTC
2013-02-23 00:00:00,30.0,25.2,29.97,West,269,9.0,18.0,82,0.00,,---,0.00,VWS V14.00,2013-02-23 05:00:00,
2013-02-23 00:30:00,29.6,24.8,29.97,WSW,246,11.0,17.0,82,0.00,,---,0.00,VWS V14.00,2013-02-23 05:30:00,
2013-02-23 01:00:00,29.4,24.3,29.97,West,264,9.0,15.0,81,0.00,,---,0.00,VWS V14.00,2013-02-23 06:00:00,
2013-02-23 01:30:00,29.0,24.2,29.97,WSW,256,6.0,14.0,82,0.00,,---,0.00,VWS V14.00,2013-02-23 06:30:00,
2013-02-23 02:00:00,28.8,24.3,29.96,WSW,248,8.0,14.0,83,0.00,,---,0.00,VWS V14.00,2013-02-23 07:00:00,
2013-02-23 02:30:00,28.4,24.2,29.96,WSW,248,4.0,13.0,84,0.00,,---,0.00,VWS V14.00,2013-02-23 07:30:00,
2013-02-23 03:00:00,28.0,24.4,29.96,WSW,242,8.0,15.0,86,0.00,,---,0.00,VWS V14.00,2013-02-23 08:00:00,
2013-02-23 03:30:00,27.7,23.8,29.96,SSW,197,6.0,15.0,85,0.00,,---,0.00,VWS V14.00,2013-02-23 08:30:00,
2013-02-23 04:00:00,27.5,23.9,29.95,WSW,250,10.0,14.0,86,0.00,,---,0.00,VWS V14.00,2013-02-23 09:00:00,
2013-02-23 04:30:00,27.4,24.0,29.95,WSW,253,8.0,15.0,87,0.00,,---,0.00,VWS V14.00,2013-02-23 09:30:00,
2013-02-23 05:00:00,27.3,24.2,29.95,SSW,207,4.0,13.0,88,0.00,,---,0.00,VWS V14.00,2013-02-23 10:00:00,
2013-02-23 05:30:00,27.1,23.8,29.96,West,269,7.0,13.0,87,0.00,,---,0.00,VWS V14.00,2013-02-23 10:30:00,
2013-02-23 06:00:00,26.9,23.6,29.96,WSW,256,7.0,12.0,87,0.00,,---,0.00,VWS V14.00,2013-02-23 11:00:00,
2013-02-23 06:30:00,26.7,23.1,29.97,WSW,251,9.0,12.0,86,0.00,,---,0.00,VWS V14.00,2013-02-23 11:30:00,
2013-02-23 07:00:00,26.5,23.2,29.97,WSW,248,9.0,13.0,87,0.00,,---,0.00,VWS V14.00,2013-02-23 12:00:00,
2013-02-23 07:30:00,26.2,22.9,29.98,West,262,7.0,12.0,87,0.00,,---,0.00,VWS V14.00,2013-02-23 12:30:00,
2013-02-23 08:00:00,26.1,22.2,29.99,West,273,10.0,11.0,85,0.00,,---,0.00,VWS V14.00,2013-02-23 13:00:00,
2013-02-23 08:30:00,26.0,22.1,29.99,West,274,7.0,12.0,85,0.00,,---,0.00,VWS V14.00,2013-02-23 13:30:00,
2013-02-23 09:00:00,26.0,21.6,29.99,WNW,282,8.0,14.0,83,0.00,,---,0.00,VWS V14.00,2013-02-23 14:00:00,
2013-02-23 09:30:00,26.1,21.1,29.98,West,274,10.0,13.0,81,0.00,,---,0.00,VWS V14.00,2013-02-23 14:30:00,
2013-02-23 10:00:00,26.4,21.4,29.97,WNW,282,8.0,11.0,81,0.00,,---,0.00,VWS V14.00,2013-02-23 15:00:00,
2013-02-23 10:30:00,26.0,21.0,29.98,West,281,9.0,15.0,81,0.00,,---,0.00,VWS V14.00,2013-02-23 15:30:00,
2013-02-23 11:00:00,25.9,21.5,29.98,West,278,5.0,13.0,83,0.00,,---,0.00,VWS V14.00,2013-02-23 16:00:00,
2013-02-23 11:30:00,26.9,21.9,29.98,WNW,285,9.0,13.0,81,0.00,,---,0.00,VWS V14.00,2013-02-23 16:30:00,
2013-02-23 12:00:00,27.3,21.7,29.98,West,265,9.0,13.0,79,0.00,,---,0.00,VWS V14.00,2013-02-23 17:00:00,
2013-02-23 12:30:00,27.6,21.6,29.97,WSW,257,9.0,15.0,78,0.00,,---,0.00,VWS V14.00,2013-02-23 17:30:00,
2013-02-23 13:00:00,27.9,21.3,29.96,WSW,253,10.0,16.0,76,0.00,,---,0.00,VWS V14.00,2013-02-23 18:00:00,
2013-02-23 13:30:00,28.3,21.4,29.96,WSW,241,9.0,15.0,75,0.00,,---,0.00,VWS V14.00,2013-02-23 18:30:00,
2013-02-23 14:00:00,29.1,21.5,29.94,West,259,9.0,14.0,73,0.00,,---,0.00,VWS V14.00,2013-02-23 19:00:00,
2013-02-23 14:30:00,29.0,21.8,29.94,WSW,253,6.0,14.0,74,0.00,,---,0.00,VWS V14.00,2013-02-23 19:30:00,
2013-02-23 15:00:00,28.8,21.6,29.93,SW,228,7.0,15.0,74,0.00,,---,0.00,VWS V14.00,2013-02-23 20:00:00,
2013-02-23 15:30:00,28.5,21.6,29.94,SW,229,6.0,15.0,75,0.00,,---,0.00,VWS V14.00,2013-02-23 20:30:00,
2013-02-23 16:00:00,28.3,21.7,29.95,SW,235,12.0,14.0,76,0.00,,---,0.00,VWS V14.00,2013-02-23 21:00:00,
2013-02-23 16:30:00,27.9,21.6,29.95,West,263,9.0,16.0,77,0.00,,---,0.00,VWS V14.00,2013-02-23 21:30:00,
2013-02-23 17:00:00,27.8,22.7,29.95,West,266,8.0,14.0,81,0.00,,---,0.00,VWS V14.00,2013-02-23 22:00:00,
2013-02-23 17:30:00,27.5,22.7,29.95,WSW,250,6.0,13.0,82,0.00,,---,0.00,VWS V14.00,2013-02-23 22:30:00,
2013-02-23 18:00:00,27.1,21.8,29.96,WSW,257,6.0,13.0,80,0.00,,---,0.00,VWS V14.00,2013-02-23 23:00:00,
2013-02-23 18:30:00,26.9,21.9,29.97,West,281,6.0,14.0,81,0.00,,---,0.00,VWS V14.00,2013-02-23 23:30:00,
2013-02-23 19:00:00,26.8,21.8,29.97,West,261,8.0,13.0,81,0.00,,---,0.00,VWS V14.00,2013-02-24 00:00:00,
2013-02-23 19:30:00,26.3,21.6,29.98,WSW,257,7.0,14.0,82,0.00,,---,0.00,VWS V14.00,2013-02-24 00:30:00,
2013-02-23 20:00:00,26.2,21.5,29.98,West,281,6.0,12.0,82,0.00,,---,0.00,VWS V14.00,2013-02-24 01:00:00,
2013-02-23 20:30:00,26.1,21.6,29.99,West,264,8.0,12.0,83,0.00,,---,0.00,VWS V14.00,2013-02-24 01:30:00,
2013-02-23 21:00:00,25.9,21.2,29.99,WNW,287,5.0,13.0,82,0.00,,---,0.00,VWS V14.00,2013-02-24 02:00:00,
2013-02-23 21:30:00,25.9,21.2,29.99,West,266,6.0,12.0,82,0.00,,---,0.00,VWS V14.00,2013-02-24 02:30:00,
2013-02-23 22:00:00,25.8,21.4,29.99,WNW,283,6.0,13.0,83,0.00,,---,0.00,VWS V14.00,2013-02-24 03:00:00,
2013-02-23 22:30:00,25.6,20.9,29.98,WNW,288,5.0,12.0,82,0.00,,---,0.00,VWS V14.00,2013-02-24 03:30:00,
2013-02-23 23:00:00,25.5,21.1,29.98,WNW,286,6.0,10.0,83,0.00,,---,0.00,VWS V14.00,2013-02-24 04:00:00,
2013-02-23 23:30:00,25.5,20.8,29.98,West,281,8.0,12.0,82,0.00,,---,0.00,VWS V14.00,2013-02-24 04:30:00,